Time;durP1;ratioP1;P1;durP2;ratioP2;P2;SDS_P1;SDS_P2;PMS_P1;PMS_P2;Temp;Humidity;BMP_temperature;BMP_pressure;BME280_temperature;BME280_humidity;BME280_pressure;Samples;Min_cycle;Max_cycle;Signal;HPM_P1;HPM_P2
2023/08/19 00:00:28;;;;;;;159.48;147.32;;;;;;;;;;5057296;28;20982;-81
2023/08/19 00:02:58;;;;;;;14.33;13.20;;;;;;;;;;5042181;28;21035;-82
2023/08/19 00:05:25;;;;;;;174.43;161.00;;;;;;;;;;5037803;28;20464;-82
2023/08/19 00:07:55;;;;;;;314.33;287.23;;;;;;;;;;5058080;28;20845;-81
2023/08/19 00:10:22;;;;;;;87.43;81.10;;;;;;;;;;5046517;28;22446;-81
2023/08/19 00:12:52;;;;;;;387.70;353.40;;;;;;;;;;5059075;28;21155;-82
2023/08/19 00:15:19;;;;;;;119.38;110.30;;;;;;;;;;5040067;28;20463;-81
2023/08/19 00:17:46;;;;;;;452.60;412.38;;;;;;;;;;5051519;28;20431;-82
2023/08/19 00:20:13;;;;;;;383.40;349.63;;;;;;;;;;5038425;28;20494;-81
2023/08/19 00:22:41;;;;;;;75.25;69.57;;;;;;;;;;5055948;28;21329;-81
2023/08/19 00:25:08;;;;;;;7.65;6.97;;;;;;;;;;5057052;28;20431;-81
2023/08/19 00:27:35;;;;;;;11.85;10.68;;;;;;;;;;5058793;28;21268;-80
2023/08/19 00:30:03;;;;;;;233.73;214.35;;;;;;;;;;5059513;28;20431;-81
2023/08/19 00:32:31;;;;;;;855.40;778.05;;;;;;;;;;5040152;28;20435;-81
2023/08/19 00:34:58;;;;;;;329.03;300.07;;;;;;;;;;5057442;28;22083;-82
2023/08/19 00:37:25;;;;;;;627.92;570.95;;;;;;;;;;5056519;28;20440;-81
2023/08/19 00:39:52;;;;;;;707.15;644.78;;;;;;;;;;5037874;28;20428;-82
2023/08/19 00:42:19;;;;;;;856.67;777.13;;;;;;;;;;5057916;28;21174;-81
2023/08/19 00:44:46;;;;;;;630.17;573.13;;;;;;;;;;5038436;28;20435;-82
2023/08/19 00:47:16;;;;;;;729.65;666.40;;;;;;;;;;5059438;28;20431;-81
2023/08/19 00:49:44;;;;;;;852.25;774.38;;;;;;;;;;5056693;28;20428;-81
2023/08/19 00:52:11;;;;;;;396.67;360.17;;;;;;;;;;5035358;28;20432;-81
2023/08/19 00:54:38;;;;;;;295.27;269.85;;;;;;;;;;5058619;28;20502;-81
2023/08/19 00:57:05;;;;;;;471.43;427.50;;;;;;;;;;5054987;28;20919;-82
2023/08/19 00:59:33;;;;;;;510.15;464.30;;;;;;;;;;5053739;28;20542;-81
2023/08/19 01:02:00;;;;;;;599.13;546.50;;;;;;;;;;5039003;28;20935;-82
2023/08/19 01:04:27;;;;;;;382.13;349.20;;;;;;;;;;5057417;28;21236;-81
2023/08/19 01:07:13;;;;;;;461.73;419.77;;;;;;;;;;5036463;28;20592;-81
2023/08/19 01:10:00;;;;;;;35.38;33.08;;;;;;;;;;5043104;28;20455;-81
2023/08/19 01:12:31;;;;;;;236.73;217.00;;;;;;;;;;5054680;28;20522;-82
2023/08/19 01:15:18;;;;;;;43.42;40.15;;;;;;;;;;5055236;28;20528;-83
2023/08/19 01:17:47;;;;;;;179.63;166.00;;;;;;;;;;5040444;28;20450;-81
2023/08/19 01:20:15;;;;;;;554.42;503.27;;;;;;;;;;5052736;28;21655;-82
2023/08/19 01:23:01;;;;;;;341.98;311.30;;;;;;;;;;5038672;28;20436;-83
2023/08/19 01:25:29;;;;;;;573.22;520.17;;;;;;;;;;5053870;28;20508;-83
2023/08/19 01:27:56;;;;;;;699.20;637.10;;;;;;;;;;5052849;28;20703;-82
2023/08/19 01:30:25;;;;;;;820.65;746.33;;;;;;;;;;5047024;28;20474;-81
2023/08/19 01:32:52;;;;;;;838.65;763.72;;;;;;;;;;5054456;28;20489;-82
2023/08/19 01:35:19;;;;;;;657.33;599.05;;;;;;;;;;5053697;28;20438;-81
2023/08/19 01:37:53;;;;;;;573.05;520.38;;;;;;;;;;5040098;28;20976;-81
2023/08/19 01:40:22;;;;;;;401.20;364.92;;;;;;;;;;5034485;28;20908;-81
2023/08/19 01:42:50;;;;;;;478.25;433.95;;;;;;;;;;5039871;28;20423;-82
2023/08/19 01:45:20;;;;;;;612.00;555.65;;;;;;;;;;5055744;28;20443;-81
2023/08/19 01:47:52;;;;;;;242.52;222.45;;;;;;;;;;5037998;28;20909;-81
2023/08/19 01:50:20;;;;;;;387.33;351.33;;;;;;;;;;5041600;28;20443;-81
2023/08/19 01:52:50;;;;;;;270.45;246.77;;;;;;;;;;5057532;28;20464;-82
2023/08/19 01:55:21;;;;;;;73.78;68.35;;;;;;;;;;5052055;28;20464;-83
2023/08/19 01:57:48;;;;;;;15.60;14.38;;;;;;;;;;5057489;28;20427;-82
2023/08/19 02:00:15;;;;;;;6.53;3.38;;;;;;;;;;5055130;28;20438;-81
2023/08/19 02:02:42;;;;;;;3.80;2.90;;;;;;;;;;5039122;28;20464;-83
2023/08/19 02:05:14;;;;;;;7.28;5.55;;;;;;;;;;5056347;28;20488;-81
2023/08/19 02:07:42;;;;;;;18.50;16.88;;;;;;;;;;5058591;28;20444;-82
2023/08/19 02:10:11;;;;;;;29.80;27.70;;;;;;;;;;5040677;28;22390;-81
2023/08/19 02:12:38;;;;;;;5.20;4.75;;;;;;;;;;5060252;28;20439;-82
2023/08/19 02:15:06;;;;;;;8.43;7.63;;;;;;;;;;5062083;28;20494;-82
2023/08/19 02:17:33;;;;;;;5.05;4.45;;;;;;;;;;5054999;28;20467;-81
2023/08/19 02:20:01;;;;;;;40.57;37.43;;;;;;;;;;5062467;28;20522;-81
2023/08/19 02:22:28;;;;;;;5.68;3.00;;;;;;;;;;5043739;28;20431;-81
2023/08/19 02:24:55;;;;;;;2.95;2.35;;;;;;;;;;5060770;28;21382;-81
2023/08/19 02:27:25;;;;;;;5.03;3.08;;;;;;;;;;5061804;28;20427;-82
2023/08/19 02:29:53;;;;;;;2.65;2.45;;;;;;;;;;5061459;28;20431;-82
2023/08/19 02:32:23;;;;;;;3.00;2.78;;;;;;;;;;5045435;28;20472;-81
2023/08/19 02:34:53;;;;;;;4.60;2.83;;;;;;;;;;5060205;28;20464;-83
2023/08/19 02:37:21;;;;;;;5.85;2.55;;;;;;;;;;5039104;28;20460;-81
2023/08/19 02:39:48;;;;;;;3.67;2.70;;;;;;;;;;5060678;28;20516;-82
2023/08/19 02:42:17;;;;;;;4.47;2.63;;;;;;;;;;5056756;28;20521;-81
2023/08/19 02:44:44;;;;;;;3.30;2.80;;;;;;;;;;5058378;28;20435;-81
2023/08/19 02:47:12;;;;;;;3.85;2.72;;;;;;;;;;5059773;28;20423;-81
2023/08/19 02:49:41;;;;;;;4.10;3.70;;;;;;;;;;5057738;28;20510;-81
2023/08/19 02:52:09;;;;;;;4.32;2.50;;;;;;;;;;5056235;28;20446;-81
2023/08/19 02:54:36;;;;;;;4.15;2.53;;;;;;;;;;5060152;28;20484;-81
2023/08/19 02:57:03;;;;;;;4.30;2.75;;;;;;;;;;5035683;28;20856;-81
2023/08/19 02:59:30;;;;;;;4.75;3.50;;;;;;;;;;5057594;28;20443;-81
2023/08/19 03:01:57;;;;;;;6.13;2.90;;;;;;;;;;5058113;28;21038;-81
2023/08/19 03:04:24;;;;;;;3.10;2.67;;;;;;;;;;5058966;28;20431;-82
2023/08/19 03:06:52;;;;;;;3.90;2.80;;;;;;;;;;5060067;28;20439;-81
2023/08/19 03:09:19;;;;;;;4.93;2.85;;;;;;;;;;5045148;28;20548;-81
2023/08/19 03:11:48;;;;;;;2.72;2.53;;;;;;;;;;5038074;28;20427;-81
2023/08/19 03:14:15;;;;;;;2.72;2.53;;;;;;;;;;5062822;28;21166;-81
2023/08/19 03:16:45;;;;;;;4.32;2.58;;;;;;;;;;5063916;28;20439;-81
2023/08/19 03:19:14;;;;;;;3.97;2.67;;;;;;;;;;5060896;28;20433;-77
2023/08/19 03:21:41;;;;;;;6.30;2.90;;;;;;;;;;5065033;28;20550;-76
2023/08/19 03:24:08;;;;;;;3.30;2.63;;;;;;;;;;5050473;28;20419;-76
2023/08/19 03:26:36;;;;;;;2.53;2.40;;;;;;;;;;5066015;28;20443;-76
2023/08/19 03:29:06;;;;;;;4.85;2.67;;;;;;;;;;5056617;28;20518;-76
2023/08/19 03:31:33;;;;;;;4.72;2.58;;;;;;;;;;5042060;28;20509;-77
2023/08/19 03:34:00;;;;;;;2.85;2.65;;;;;;;;;;5057439;28;20428;-76
2023/08/19 03:36:27;;;;;;;2.63;2.42;;;;;;;;;;5043602;28;20512;-76
2023/08/19 03:38:54;;;;;;;2.78;2.58;;;;;;;;;;5057389;28;20522;-77
2023/08/19 03:41:21;;;;;;;2.90;2.70;;;;;;;;;;5059540;28;20431;-77
2023/08/19 03:43:49;;;;;;;2.47;2.30;;;;;;;;;;5058863;28;20434;-77
2023/08/19 03:46:17;;;;;;;2.55;2.30;;;;;;;;;;5038384;28;20434;-77
2023/08/19 03:48:47;;;;;;;3.08;2.60;;;;;;;;;;5059685;28;20447;-77
2023/08/19 03:51:15;;;;;;;2.72;2.50;;;;;;;;;;5060796;28;20432;-77
2023/08/19 03:53:42;;;;;;;3.25;2.50;;;;;;;;;;5055204;28;20431;-77
2023/08/19 03:56:09;;;;;;;6.75;3.05;;;;;;;;;;5059439;28;20466;-76
2023/08/19 03:58:37;;;;;;;5.03;2.50;;;;;;;;;;5048069;28;20445;-76
2023/08/19 04:01:08;;;;;;;3.15;2.80;;;;;;;;;;5058860;28;20785;-75
2023/08/19 04:03:35;;;;;;;3.15;2.63;;;;;;;;;;5063104;28;20439;-76
2023/08/19 04:06:02;;;;;;;2.58;2.42;;;;;;;;;;5058562;28;20522;-76
2023/08/19 04:08:30;;;;;;;3.78;3.25;;;;;;;;;;5058214;28;20715;-76
2023/08/19 04:11:06;;;;;;;5.13;2.63;;;;;;;;;;5056525;28;20771;-76
2023/08/19 04:13:34;;;;;;;3.53;2.67;;;;;;;;;;5041355;28;20442;-76
2023/08/19 04:16:06;;;;;;;3.35;2.83;;;;;;;;;;5061450;28;20494;-77
2023/08/19 04:18:34;;;;;;;4.65;2.72;;;;;;;;;;5054204;28;21047;-76
2023/08/19 04:21:05;;;;;;;3.10;2.47;;;;;;;;;;5060627;28;20431;-76
2023/08/19 04:23:33;;;;;;;5.28;2.83;;;;;;;;;;5036484;28;20525;-77
2023/08/19 04:26:00;;;;;;;4.50;2.50;;;;;;;;;;5059969;28;20435;-77
2023/08/19 04:28:28;;;;;;;2.93;2.73;;;;;;;;;;5057683;28;20441;-76
2023/08/19 04:31:09;;;;;;;3.00;2.53;;;;;;;;;;5051485;28;20435;-77
2023/08/19 04:33:36;;;;;;;2.87;2.43;;;;;;;;;;5053788;28;20912;-76
2023/08/19 04:36:03;;;;;;;5.40;2.50;;;;;;;;;;5037027;28;20439;-77
2023/08/19 04:38:31;;;;;;;3.53;2.50;;;;;;;;;;5057258;28;20435;-76
2023/08/19 04:41:01;;;;;;;4.28;2.72;;;;;;;;;;5059831;28;20530;-78
2023/08/19 04:43:28;;;;;;;2.80;2.60;;;;;;;;;;5037860;28;20523;-76
2023/08/19 04:45:55;;;;;;;4.13;2.67;;;;;;;;;;5058282;28;20470;-75
2023/08/19 04:48:23;;;;;;;3.92;2.60;;;;;;;;;;5057683;28;20452;-76
2023/08/19 04:50:51;;;;;;;2.70;2.50;;;;;;;;;;5056222;28;20433;-76
2023/08/19 04:53:18;;;;;;;2.97;2.67;;;;;;;;;;5060083;28;20816;-76
2023/08/19 04:55:47;;;;;;;3.08;2.78;;;;;;;;;;5060133;28;20951;-76
2023/08/19 04:58:14;;;;;;;3.15;2.80;;;;;;;;;;5056485;28;20910;-76
2023/08/19 05:00:42;;;;;;;2.85;2.65;;;;;;;;;;5049545;28;20471;-76
2023/08/19 05:03:14;;;;;;;3.60;2.53;;;;;;;;;;5037220;28;20440;-76
2023/08/19 05:05:41;;;;;;;4.80;2.88;;;;;;;;;;5057422;28;20423;-76
2023/08/19 05:08:08;;;;;;;2.70;2.50;;;;;;;;;;5056127;28;20830;-76
2023/08/19 05:10:36;;;;;;;3.50;2.50;;;;;;;;;;5052716;28;20540;-76
2023/08/19 05:13:03;;;;;;;3.03;2.55;;;;;;;;;;5046743;28;20435;-77
2023/08/19 05:15:30;;;;;;;2.75;2.55;;;;;;;;;;5046428;28;20454;-76
2023/08/19 05:17:57;;;;;;;3.05;2.75;;;;;;;;;;5045025;28;20459;-76
2023/08/19 05:20:24;;;;;;;5.40;2.40;;;;;;;;;;5056716;28;20467;-76
2023/08/19 05:22:51;;;;;;;3.97;2.58;;;;;;;;;;5055469;28;20436;-76
2023/08/19 05:25:19;;;;;;;4.88;2.72;;;;;;;;;;5054462;28;20467;-76
2023/08/19 05:27:46;;;;;;;4.05;2.38;;;;;;;;;;5057050;28;20545;-76
2023/08/19 05:30:13;;;;;;;2.70;2.50;;;;;;;;;;5057320;28;20871;-76
2023/08/19 05:32:43;;;;;;;3.30;3.00;;;;;;;;;;5056040;28;20465;-76
2023/08/19 05:35:13;;;;;;;2.65;2.40;;;;;;;;;;5050254;28;20459;-76
2023/08/19 05:37:41;;;;;;;3.03;2.60;;;;;;;;;;5046364;28;20500;-76
2023/08/19 05:40:08;;;;;;;2.72;2.53;;;;;;;;;;5047228;28;20551;-76
2023/08/19 05:42:36;;;;;;;5.38;2.67;;;;;;;;;;5042689;28;21957;-76
2023/08/19 05:45:03;;;;;;;7.13;2.67;;;;;;;;;;5047889;28;20429;-76
2023/08/19 05:47:30;;;;;;;5.43;2.53;;;;;;;;;;5025932;28;20431;-78
2023/08/19 05:49:58;;;;;;;5.18;2.40;;;;;;;;;;5045666;28;20541;-78
2023/08/19 05:52:25;;;;;;;3.47;2.45;;;;;;;;;;5046548;28;20732;-77
2023/08/19 05:54:52;;;;;;;4.10;2.47;;;;;;;;;;5026105;28;20467;-78
2023/08/19 05:57:19;;;;;;;2.70;2.30;;;;;;;;;;5044970;28;20523;-79
2023/08/19 05:59:46;;;;;;;2.47;2.28;;;;;;;;;;5035304;28;20982;-79
2023/08/19 06:02:14;;;;;;;2.63;2.42;;;;;;;;;;5049043;28;20427;-76
2023/08/19 06:04:44;;;;;;;5.65;2.40;;;;;;;;;;5056714;28;20510;-76
2023/08/19 06:07:11;;;;;;;2.70;2.17;;;;;;;;;;5068359;28;20503;-76
2023/08/19 06:09:39;;;;;;;2.33;2.17;;;;;;;;;;5056094;28;20500;-76
2023/08/19 06:12:06;;;;;;;6.80;2.63;;;;;;;;;;5053653;28;21049;-76
2023/08/19 06:14:33;;;;;;;2.80;2.30;;;;;;;;;;5043375;28;20492;-77
2023/08/19 06:17:00;;;;;;;2.30;2.20;;;;;;;;;;5052412;28;20435;-77
2023/08/19 06:19:28;;;;;;;2.85;2.25;;;;;;;;;;5047220;28;21860;-77
2023/08/19 06:21:55;;;;;;;4.53;2.10;;;;;;;;;;5025967;28;20917;-77
2023/08/19 06:24:22;;;;;;;2.13;2.03;;;;;;;;;;5044604;28;20441;-77
2023/08/19 06:26:50;;;;;;;2.90;2.42;;;;;;;;;;5025158;28;20450;-78
2023/08/19 06:29:17;;;;;;;2.75;2.13;;;;;;;;;;5049961;28;20439;-78
2023/08/19 06:31:44;;;;;;;2.97;2.10;;;;;;;;;;5053229;28;20538;-77
2023/08/19 06:34:12;;;;;;;5.18;2.30;;;;;;;;;;5027051;28;20478;-78
2023/08/19 06:36:41;;;;;;;3.10;2.08;;;;;;;;;;5051043;28;20444;-78
2023/08/19 06:39:16;;;;;;;3.55;2.20;;;;;;;;;;5031689;28;20443;-79
2023/08/19 06:41:46;;;;;;;2.22;2.13;;;;;;;;;;5030944;28;20463;-79
2023/08/19 06:44:13;;;;;;;2.70;2.25;;;;;;;;;;5045751;28;20463;-80
2023/08/19 06:46:43;;;;;;;3.40;2.30;;;;;;;;;;5050344;28;20423;-80
2023/08/19 06:49:11;;;;;;;1.92;1.83;;;;;;;;;;5030154;28;20463;-78
2023/08/19 06:51:38;;;;;;;5.23;2.03;;;;;;;;;;5032034;28;20435;-78
2023/08/19 06:54:05;;;;;;;3.03;2.33;;;;;;;;;;5037651;28;20512;-79
2023/08/19 06:56:43;;;;;;;2.92;2.58;;;;;;;;;;5046401;28;20562;-80
2023/08/19 06:59:22;;;;;;;2.92;2.25;;;;;;;;;;5052803;28;20441;-78
2023/08/19 07:01:53;;;;;;;3.78;2.10;;;;;;;;;;5034820;28;20439;-78
2023/08/19 07:04:22;;;;;;;2.97;2.40;;;;;;;;;;5049358;28;20454;-79
2023/08/19 07:06:51;;;;;;;4.22;2.22;;;;;;;;;;5052255;28;20435;-79
2023/08/19 07:09:20;;;;;;;3.42;2.45;;;;;;;;;;5056000;28;20439;-79
2023/08/19 07:11:55;;;;;;;2.15;2.00;;;;;;;;;;5055473;28;20439;-75
2023/08/19 07:14:23;;;;;;;2.85;2.42;;;;;;;;;;5053946;28;20459;-78
2023/08/19 07:16:51;;;;;;;3.33;2.25;;;;;;;;;;5052851;28;20518;-79
2023/08/19 07:19:22;;;;;;;2.53;2.33;;;;;;;;;;5034326;28;20937;-78
2023/08/19 07:21:50;;;;;;;5.20;2.35;;;;;;;;;;5035691;28;20435;-79
2023/08/19 07:24:17;;;;;;;3.17;2.53;;;;;;;;;;5051265;28;20435;-79
2023/08/19 07:26:45;;;;;;;2.70;2.35;;;;;;;;;;5049466;28;21399;-79
2023/08/19 07:29:12;;;;;;;4.30;2.60;;;;;;;;;;5031520;28;20535;-79
2023/08/19 07:31:40;;;;;;;2.65;2.45;;;;;;;;;;5053778;28;20432;-79
2023/08/19 07:34:07;;;;;;;3.75;2.30;;;;;;;;;;5038914;28;20495;-78
2023/08/19 07:36:34;;;;;;;5.40;2.58;;;;;;;;;;5055579;28;20526;-78
2023/08/19 07:39:03;;;;;;;2.40;2.20;;;;;;;;;;5056167;28;20439;-78
2023/08/19 07:41:31;;;;;;;4.13;2.20;;;;;;;;;;5034143;28;20511;-79
2023/08/19 07:43:58;;;;;;;4.80;2.40;;;;;;;;;;5048025;28;20433;-78
2023/08/19 07:46:28;;;;;;;2.40;2.15;;;;;;;;;;5029820;28;20615;-76
2023/08/19 07:48:56;;;;;;;4.57;2.60;;;;;;;;;;5054602;28;20510;-77
2023/08/19 07:51:25;;;;;;;2.30;2.10;;;;;;;;;;5050343;28;20427;-76
2023/08/19 07:53:53;;;;;;;2.47;2.30;;;;;;;;;;5038696;28;20492;-77
2023/08/19 07:56:20;;;;;;;2.50;2.30;;;;;;;;;;5052398;28;20522;-76
2023/08/19 07:58:47;;;;;;;2.67;2.47;;;;;;;;;;5053530;28;20492;-77
2023/08/19 08:01:14;;;;;;;3.70;2.45;;;;;;;;;;5052754;28;20466;-77
2023/08/19 08:03:41;;;;;;;4.25;2.20;;;;;;;;;;5052848;28;20516;-76
2023/08/19 08:06:08;;;;;;;16.53;10.83;;;;;;;;;;5051083;28;20430;-77
2023/08/19 08:08:35;;;;;;;2.90;2.70;;;;;;;;;;5051386;28;20891;-77
2023/08/19 08:11:03;;;;;;;5.20;4.80;;;;;;;;;;5036594;28;20470;-76
2023/08/19 08:13:30;;;;;;;3.17;2.47;;;;;;;;;;5054409;28;21010;-76
2023/08/19 08:15:58;;;;;;;4.13;2.30;;;;;;;;;;5053750;28;20917;-76
2023/08/19 08:18:26;;;;;;;3.23;2.23;;;;;;;;;;5038941;28;20434;-76
2023/08/19 08:20:54;;;;;;;3.50;2.53;;;;;;;;;;5056769;28;20481;-76
2023/08/19 08:23:21;;;;;;;3.20;3.00;;;;;;;;;;5055470;28;22290;-76
2023/08/19 08:25:51;;;;;;;3.67;2.17;;;;;;;;;;5040198;28;20436;-77
2023/08/19 08:28:19;;;;;;;4.95;2.35;;;;;;;;;;5059374;28;20438;-76
2023/08/19 08:30:46;;;;;;;2.40;2.20;;;;;;;;;;5055167;28;20423;-76
2023/08/19 08:33:13;;;;;;;3.43;2.40;;;;;;;;;;5052163;28;22974;-77
2023/08/19 08:35:40;;;;;;;5.30;3.15;;;;;;;;;;5035750;28;20463;-77
2023/08/19 08:38:08;;;;;;;4.63;3.27;;;;;;;;;;5050968;28;20496;-76
2023/08/19 08:40:35;;;;;;;4.13;2.97;;;;;;;;;;5051968;28;20482;-77
2023/08/19 08:43:03;;;;;;;3.58;2.45;;;;;;;;;;5053175;28;20435;-76
2023/08/19 08:45:31;;;;;;;4.60;2.85;;;;;;;;;;5051534;28;20485;-75
2023/08/19 08:48:00;;;;;;;5.28;4.88;;;;;;;;;;5048288;28;20942;-75
2023/08/19 08:50:28;;;;;;;2.67;2.47;;;;;;;;;;5052158;28;20459;-75
2023/08/19 08:52:56;;;;;;;3.60;2.85;;;;;;;;;;5051372;28;20431;-77
2023/08/19 08:55:24;;;;;;;3.13;2.88;;;;;;;;;;5052310;28;20993;-77
2023/08/19 08:57:51;;;;;;;3.97;2.50;;;;;;;;;;5047999;28;20443;-77
2023/08/19 09:00:19;;;;;;;25.95;23.70;;;;;;;;;;5029663;28;20427;-77
2023/08/19 09:02:46;;;;;;;3.78;2.60;;;;;;;;;;5047820;28;20439;-76
2023/08/19 09:05:15;;;;;;;4.57;2.78;;;;;;;;;;5031367;28;20432;-76
2023/08/19 09:07:43;;;;;;;3.75;2.60;;;;;;;;;;5049270;28;20437;-77
2023/08/19 09:10:18;;;;;;;2.90;2.53;;;;;;;;;;5050656;28;20510;-77
2023/08/19 09:12:48;;;;;;;4.97;2.90;;;;;;;;;;5034911;28;20427;-76
2023/08/19 09:15:16;;;;;;;4.28;2.80;;;;;;;;;;5050518;28;20440;-77
2023/08/19 09:17:44;;;;;;;4.78;2.60;;;;;;;;;;5030795;28;20686;-77
2023/08/19 09:20:13;;;;;;;3.60;2.80;;;;;;;;;;5054132;28;20933;-77
2023/08/19 09:22:42;;;;;;;5.97;2.90;;;;;;;;;;5052943;28;20948;-77
2023/08/19 09:25:17;;;;;;;4.40;2.63;;;;;;;;;;5035336;28;20431;-77
2023/08/19 09:27:46;;;;;;;3.40;2.70;;;;;;;;;;5048166;28;20431;-76
2023/08/19 09:30:16;;;;;;;3.40;2.45;;;;;;;;;;5045407;28;20428;-77
2023/08/19 09:32:45;;;;;;;3.60;3.00;;;;;;;;;;5046708;28;20461;-77
2023/08/19 09:35:14;;;;;;;3.08;2.78;;;;;;;;;;5051738;28;20952;-78
2023/08/19 09:37:42;;;;;;;3.35;2.60;;;;;;;;;;5037592;28;20475;-77
2023/08/19 09:40:11;;;;;;;3.75;2.75;;;;;;;;;;5051653;28;20439;-77
2023/08/19 09:42:40;;;;;;;5.30;2.53;;;;;;;;;;5034680;28;20441;-77
2023/08/19 09:45:08;;;;;;;3.00;2.40;;;;;;;;;;5048401;28;20934;-77
2023/08/19 09:47:51;;;;;;;3.25;2.95;;;;;;;;;;5050763;28;20543;-77
2023/08/19 09:50:19;;;;;;;3.53;2.30;;;;;;;;;;5050551;28;20948;-77
2023/08/19 09:52:57;;;;;;;5.18;2.65;;;;;;;;;;5049908;28;21361;-77
2023/08/19 09:55:25;;;;;;;2.95;2.75;;;;;;;;;;5021937;28;20673;-76
2023/08/19 09:57:52;;;;;;;3.78;3.08;;;;;;;;;;5047353;28;20525;-76
2023/08/19 10:00:20;;;;;;;5.00;2.75;;;;;;;;;;5025845;28;20510;-77
2023/08/19 10:02:47;;;;;;;2.70;2.50;;;;;;;;;;5046596;28;20437;-77
2023/08/19 10:05:15;;;;;;;4.07;2.73;;;;;;;;;;5025633;28;20440;-77
2023/08/19 10:07:46;;;;;;;3.10;2.63;;;;;;;;;;5045436;28;20439;-77
2023/08/19 10:10:14;;;;;;;4.90;3.10;;;;;;;;;;5045471;28;20434;-77
2023/08/19 10:12:41;;;;;;;3.58;2.60;;;;;;;;;;5047637;28;20452;-77
2023/08/19 10:15:12;;;;;;;3.13;2.60;;;;;;;;;;5046619;28;20932;-78
2023/08/19 10:17:41;;;;;;;3.33;2.83;;;;;;;;;;5049310;28;20447;-78
2023/08/19 10:20:11;;;;;;;5.67;2.87;;;;;;;;;;5032455;28;20444;-78
2023/08/19 10:22:45;;;;;;;4.82;2.83;;;;;;;;;;5049318;28;20447;-79
2023/08/19 10:25:13;;;;;;;6.35;3.10;;;;;;;;;;5049706;28;20521;-80
2023/08/19 10:27:42;;;;;;;3.47;3.00;;;;;;;;;;5028161;28;20947;-77
2023/08/19 10:30:28;;;;;;;3.00;2.70;;;;;;;;;;5041393;28;20434;-77
2023/08/19 10:32:55;;;;;;;5.63;2.90;;;;;;;;;;5055784;28;20431;-78
2023/08/19 10:35:23;;;;;;;3.47;2.90;;;;;;;;;;5041239;28;20459;-78
2023/08/19 10:37:51;;;;;;;5.15;2.97;;;;;;;;;;5057180;28;20463;-77
2023/08/19 10:40:21;;;;;;;3.17;2.80;;;;;;;;;;5057802;28;20445;-78
2023/08/19 10:42:58;;;;;;;3.22;2.88;;;;;;;;;;5055141;28;20945;-78
2023/08/19 10:45:35;;;;;;;6.70;3.10;;;;;;;;;;5056227;28;20431;-77
2023/08/19 10:48:03;;;;;;;3.78;2.80;;;;;;;;;;5057834;28;20489;-78
2023/08/19 10:50:37;;;;;;;3.95;3.15;;;;;;;;;;5055026;28;20426;-78
2023/08/19 10:53:04;;;;;;;4.18;3.35;;;;;;;;;;5041038;28;20449;-78
2023/08/19 10:55:50;;;;;;;4.57;3.20;;;;;;;;;;5054903;28;20542;-77
2023/08/19 10:58:18;;;;;;;3.30;3.00;;;;;;;;;;5054916;28;20439;-77
2023/08/19 11:00:45;;;;;;;4.40;3.47;;;;;;;;;;5053327;28;20440;-77
2023/08/19 11:03:13;;;;;;;5.35;3.15;;;;;;;;;;5035263;28;20467;-77
2023/08/19 11:05:52;;;;;;;5.88;3.20;;;;;;;;;;5052925;28;21111;-78
2023/08/19 11:08:20;;;;;;;3.33;2.83;;;;;;;;;;5034205;28;20902;-78
2023/08/19 11:10:47;;;;;;;3.65;3.28;;;;;;;;;;5053677;28;20520;-77
2023/08/19 11:13:15;;;;;;;3.78;3.30;;;;;;;;;;5054714;28;20443;-77
2023/08/19 11:15:43;;;;;;;5.18;3.60;;;;;;;;;;5050175;28;20490;-78
2023/08/19 11:18:19;;;;;;;6.38;3.30;;;;;;;;;;5034135;28;20441;-78
2023/08/19 11:20:46;;;;;;;4.83;3.43;;;;;;;;;;5047071;28;20442;-78
2023/08/19 11:23:13;;;;;;;4.50;3.40;;;;;;;;;;5058932;28;20446;-78
2023/08/19 11:25:40;;;;;;;5.43;3.30;;;;;;;;;;5065446;28;20933;-79
2023/08/19 11:28:10;;;;;;;3.78;3.45;;;;;;;;;;5059203;28;20493;-78
2023/08/19 11:30:38;;;;;;;5.47;3.30;;;;;;;;;;5040607;28;20427;-78
2023/08/19 11:33:06;;;;;;;6.57;3.78;;;;;;;;;;5039120;28;22312;-78
2023/08/19 11:35:43;;;;;;;4.35;3.75;;;;;;;;;;5068819;28;20431;-78
2023/08/19 11:38:14;;;;;;;4.40;3.45;;;;;;;;;;5064623;28;20440;-79
2023/08/19 11:40:44;;;;;;;3.23;2.93;;;;;;;;;;5052800;28;20524;-79
2023/08/19 11:43:13;;;;;;;6.07;3.95;;;;;;;;;;5056394;28;20522;-78
2023/08/19 11:45:43;;;;;;;4.65;3.58;;;;;;;;;;5034125;28;20488;-78
2023/08/19 11:48:14;;;;;;;5.25;4.35;;;;;;;;;;5041947;28;20490;-79
2023/08/19 11:50:49;;;;;;;4.82;4.43;;;;;;;;;;5050090;28;20453;-78
2023/08/19 11:53:27;;;;;;;4.50;3.67;;;;;;;;;;5045790;28;21027;-78
2023/08/19 11:56:00;;;;;;;7.15;3.50;;;;;;;;;;5056535;28;20432;-78
2023/08/19 11:58:47;;;;;;;4.57;3.90;;;;;;;;;;5045434;28;20435;-77
2023/08/19 12:01:14;;;;;;;5.60;4.32;;;;;;;;;;5066114;28;20877;-78
2023/08/19 12:03:42;;;;;;;6.20;3.95;;;;;;;;;;5059436;28;20442;-79
2023/08/19 12:06:09;;;;;;;6.85;4.65;;;;;;;;;;5038756;28;20968;-79
2023/08/19 12:08:43;;;;;;;4.82;4.00;;;;;;;;;;5041472;28;20507;-80
2023/08/19 12:11:11;;;;;;;6.00;4.15;;;;;;;;;;5025640;28;20443;-79
2023/08/19 12:13:39;;;;;;;13.45;6.25;;;;;;;;;;5052271;28;22861;-79
2023/08/19 12:16:07;;;;;;;5.67;4.77;;;;;;;;;;5032524;28;20463;-78
2023/08/19 12:18:34;;;;;;;4.90;4.20;;;;;;;;;;5056539;28;20427;-78
2023/08/19 12:21:03;;;;;;;5.10;4.28;;;;;;;;;;5034209;28;20435;-81
2023/08/19 12:23:31;;;;;;;4.47;4.07;;;;;;;;;;5036996;28;21114;-81
2023/08/19 12:26:06;;;;;;;6.15;4.50;;;;;;;;;;5046712;28;20878;-81
2023/08/19 12:28:33;;;;;;;7.72;4.20;;;;;;;;;;5040588;28;20911;-82
2023/08/19 12:31:03;;;;;;;7.40;4.53;;;;;;;;;;5027454;28;20793;-82
2023/08/19 12:33:30;;;;;;;6.70;4.38;;;;;;;;;;5053762;28;20494;-81
2023/08/19 12:35:58;;;;;;;4.70;3.95;;;;;;;;;;5033204;28;20546;-81
2023/08/19 12:38:45;;;;;;;4.57;3.88;;;;;;;;;;5038869;28;20431;-80
2023/08/19 12:41:12;;;;;;;8.40;4.85;;;;;;;;;;5033827;28;20488;-81
2023/08/19 12:43:40;;;;;;;7.83;4.63;;;;;;;;;;5051844;28;21073;-80
2023/08/19 12:46:07;;;;;;;4.03;3.70;;;;;;;;;;5035780;28;20438;-80
2023/08/19 12:48:34;;;;;;;3.88;3.45;;;;;;;;;;5052535;28;20434;-80
2023/08/19 12:51:02;;;;;;;5.97;4.13;;;;;;;;;;5047112;28;20510;-80
2023/08/19 12:53:29;;;;;;;9.45;5.85;;;;;;;;;;5052510;28;20493;-81
2023/08/19 12:55:57;;;;;;;9.15;5.53;;;;;;;;;;5050425;28;20493;-80
2023/08/19 12:58:26;;;;;;;6.43;4.32;;;;;;;;;;5052006;28;21087;-80
2023/08/19 13:00:54;;;;;;;6.93;5.53;;;;;;;;;;5039549;28;21182;-80
2023/08/19 13:03:21;;;;;;;4.97;4.40;;;;;;;;;;5043271;28;20998;-80
2023/08/19 13:05:48;;;;;;;5.00;4.28;;;;;;;;;;5035462;28;21043;-80
2023/08/19 13:08:15;;;;;;;13.27;9.17;;;;;;;;;;5054190;28;21072;-79
2023/08/19 13:10:42;;;;;;;8.02;4.40;;;;;;;;;;5050818;28;20443;-81
2023/08/19 13:13:10;;;;;;;6.47;5.77;;;;;;;;;;5053256;28;20431;-81
2023/08/19 13:15:38;;;;;;;6.10;5.57;;;;;;;;;;5034181;28;20469;-80
2023/08/19 13:18:05;;;;;;;13.40;11.93;;;;;;;;;;5050587;28;20443;-81
2023/08/19 13:20:33;;;;;;;18.20;16.10;;;;;;;;;;5054004;28;20439;-81
2023/08/19 13:23:00;;;;;;;49.45;35.28;;;;;;;;;;5051644;28;20440;-80
2023/08/19 13:25:27;;;;;;;13.45;9.55;;;;;;;;;;5030887;28;20974;-81
2023/08/19 13:27:55;;;;;;;4.57;3.92;;;;;;;;;;5052019;28;20431;-81
2023/08/19 13:30:22;;;;;;;5.70;3.80;;;;;;;;;;5057807;28;20473;-80
2023/08/19 13:32:49;;;;;;;5.10;3.80;;;;;;;;;;5051426;28;20464;-80
2023/08/19 13:35:16;;;;;;;5.00;3.60;;;;;;;;;;5055771;28;20523;-80
2023/08/19 13:37:45;;;;;;;5.50;3.73;;;;;;;;;;5041424;28;20920;-81
2023/08/19 13:40:12;;;;;;;7.25;4.10;;;;;;;;;;5038961;28;20514;-81
2023/08/19 13:42:39;;;;;;;4.88;3.50;;;;;;;;;;5057884;28;20901;-80
2023/08/19 13:45:07;;;;;;;7.78;3.83;;;;;;;;;;5039963;28;20433;-81
2023/08/19 13:47:35;;;;;;;5.90;3.67;;;;;;;;;;5042243;28;20431;-81
2023/08/19 13:50:05;;;;;;;5.00;3.40;;;;;;;;;;5066776;28;20917;-81
2023/08/19 13:52:42;;;;;;;4.25;3.85;;;;;;;;;;5060993;28;20439;-80
2023/08/19 13:55:14;;;;;;;31.77;29.35;;;;;;;;;;5063793;28;20435;-82
2023/08/19 13:57:41;;;;;;;853.42;774.92;;;;;;;;;;5057672;28;20451;-81
2023/08/19 14:00:15;;;;;;;1296.05;999.90;;;;;;;;;;5063531;28;20498;-81
2023/08/19 14:02:43;;;;;;;634.35;576.88;;;;;;;;;;5049469;28;20437;-81
2023/08/19 14:05:18;;;;;;;1223.28;999.90;;;;;;;;;;5044861;28;20514;-80
2023/08/19 14:07:46;;;;;;;316.02;286.13;;;;;;;;;;5063596;28;20903;-80
2023/08/19 14:10:16;;;;;;;32.28;29.15;;;;;;;;;;5064545;28;20425;-82
2023/08/19 14:12:45;;;;;;;6.25;5.78;;;;;;;;;;5045390;28;20431;-81
2023/08/19 14:15:13;;;;;;;191.67;175.10;;;;;;;;;;5057030;28;21081;-81
2023/08/19 14:17:45;;;;;;;109.57;100.72;;;;;;;;;;5045453;28;20517;-81
2023/08/19 14:20:12;;;;;;;38.10;35.40;;;;;;;;;;5042243;28;20435;-81
2023/08/19 14:22:40;;;;;;;20.13;18.55;;;;;;;;;;5042241;28;20485;-80
2023/08/19 14:25:13;;;;;;;134.80;124.72;;;;;;;;;;5060365;28;20438;-81
2023/08/19 14:27:42;;;;;;;274.38;251.48;;;;;;;;;;5059496;28;20539;-80
2023/08/19 14:30:09;;;;;;;3.97;3.63;;;;;;;;;;5058354;28;20479;-80
2023/08/19 14:32:36;;;;;;;3.50;3.20;;;;;;;;;;5046033;28;20528;-80
2023/08/19 14:35:03;;;;;;;4.25;2.90;;;;;;;;;;5042893;28;20431;-80
2023/08/19 14:37:31;;;;;;;3.95;3.30;;;;;;;;;;5058723;28;20594;-81
2023/08/19 14:39:59;;;;;;;8.35;3.10;;;;;;;;;;5058578;28;20435;-80
2023/08/19 14:42:26;;;;;;;33.43;30.83;;;;;;;;;;5057548;28;20472;-81